Aviation Digital Data Service (ADDS)

Output produced by TAFs form (1644 UTC 20 July 2017)
found at http://aviationweather.gov/adds/tafs/
 
KASE 201144Z 2012/2112 15008KT P6SM SCT070 
     FM201500 VRB04KT P6SM SCT070 
     FM201800 32007KT P6SM VCTS BKN070CB 
     FM202300 17011G19KT P6SM VCTS OVC070CB 
     FM210200 13007KT P6SM VCTS OVC070CB 
     FM210600 19004KT P6SM BKN070